sensor_id;sensor_type;location;lat;lon;timestamp;P1;durP1;ratioP1;P2;durP2;ratioP2
40757;SDS011;26462;47.384;19.218;2023-12-07T00:01:27;23.77;;;8.98;;
40757;SDS011;26462;47.384;19.218;2023-12-07T00:14:05;17.83;;;7.57;;
40757;SDS011;26462;47.384;19.218;2023-12-07T00:17:55;16.88;;;6.78;;
40757;SDS011;26462;47.384;19.218;2023-12-07T00:20:24;19.75;;;7.50;;
40757;SDS011;26462;47.384;19.218;2023-12-07T00:22:53;16.67;;;7.30;;
40757;SDS011;26462;47.384;19.218;2023-12-07T00:25:23;19.65;;;8.18;;
40757;SDS011;26462;47.384;19.218;2023-12-07T00:27:52;23.40;;;9.10;;
40757;SDS011;26462;47.384;19.218;2023-12-07T00:30:21;21.42;;;8.32;;
40757;SDS011;26462;47.384;19.218;2023-12-07T00:32:50;21.10;;;8.63;;
40757;SDS011;26462;47.384;19.218;2023-12-07T00:35:20;17.55;;;7.10;;
40757;SDS011;26462;47.384;19.218;2023-12-07T00:37:49;20.65;;;7.05;;
40757;SDS011;26462;47.384;19.218;2023-12-07T00:40:18;15.65;;;6.90;;
40757;SDS011;26462;47.384;19.218;2023-12-07T00:42:50;19.10;;;7.18;;
40757;SDS011;26462;47.384;19.218;2023-12-07T00:45:19;19.20;;;7.28;;
40757;SDS011;26462;47.384;19.218;2023-12-07T00:47:48;21.73;;;8.32;;
40757;SDS011;26462;47.384;19.218;2023-12-07T00:50:16;21.73;;;8.57;;
40757;SDS011;26462;47.384;19.218;2023-12-07T00:52:46;29.95;;;12.23;;
40757;SDS011;26462;47.384;19.218;2023-12-07T00:55:15;22.73;;;9.65;;
40757;SDS011;26462;47.384;19.218;2023-12-07T00:57:44;21.65;;;9.50;;
40757;SDS011;26462;47.384;19.218;2023-12-07T01:00:13;18.35;;;8.05;;
40757;SDS011;26462;47.384;19.218;2023-12-07T01:02:42;20.20;;;7.60;;
40757;SDS011;26462;47.384;19.218;2023-12-07T01:05:11;21.58;;;9.88;;
40757;SDS011;26462;47.384;19.218;2023-12-07T01:07:40;14.35;;;5.95;;
40757;SDS011;26462;47.384;19.218;2023-12-07T01:10:10;18.08;;;7.75;;
40757;SDS011;26462;47.384;19.218;2023-12-07T01:12:39;14.55;;;6.68;;
40757;SDS011;26462;47.384;19.218;2023-12-07T01:15:08;15.73;;;7.20;;
40757;SDS011;26462;47.384;19.218;2023-12-07T01:17:37;16.35;;;6.78;;
40757;SDS011;26462;47.384;19.218;2023-12-07T01:20:06;14.20;;;6.57;;
40757;SDS011;26462;47.384;19.218;2023-12-07T01:22:39;16.40;;;6.72;;
40757;SDS011;26462;47.384;19.218;2023-12-07T01:25:08;16.42;;;6.35;;
40757;SDS011;26462;47.384;19.218;2023-12-07T01:27:40;17.50;;;7.30;;
40757;SDS011;26462;47.384;19.218;2023-12-07T01:30:09;21.70;;;9.13;;
40757;SDS011;26462;47.384;19.218;2023-12-07T01:32:38;19.88;;;7.82;;
40757;SDS011;26462;47.384;19.218;2023-12-07T01:35:07;16.90;;;7.82;;
40757;SDS011;26462;47.384;19.218;2023-12-07T01:37:36;20.58;;;8.20;;
40757;SDS011;26462;47.384;19.218;2023-12-07T01:40:05;18.08;;;8.13;;
40757;SDS011;26462;47.384;19.218;2023-12-07T01:42:39;19.50;;;8.30;;
40757;SDS011;26462;47.384;19.218;2023-12-07T01:45:07;19.05;;;7.32;;
40757;SDS011;26462;47.384;19.218;2023-12-07T01:47:36;22.33;;;8.10;;
40757;SDS011;26462;47.384;19.218;2023-12-07T01:50:05;16.05;;;7.07;;
40757;SDS011;26462;47.384;19.218;2023-12-07T01:52:35;16.30;;;7.88;;
40757;SDS011;26462;47.384;19.218;2023-12-07T01:55:07;14.30;;;6.28;;
40757;SDS011;26462;47.384;19.218;2023-12-07T01:57:39;16.52;;;6.32;;
40757;SDS011;26462;47.384;19.218;2023-12-07T02:00:09;13.45;;;6.20;;
40757;SDS011;26462;47.384;19.218;2023-12-07T02:02:40;14.65;;;5.70;;
40757;SDS011;26462;47.384;19.218;2023-12-07T02:05:09;15.80;;;6.22;;
40757;SDS011;26462;47.384;19.218;2023-12-07T02:07:37;16.70;;;6.40;;
40757;SDS011;26462;47.384;19.218;2023-12-07T02:10:08;15.05;;;5.93;;
40757;SDS011;26462;47.384;19.218;2023-12-07T02:12:39;14.23;;;5.53;;
40757;SDS011;26462;47.384;19.218;2023-12-07T02:15:08;15.10;;;6.03;;
40757;SDS011;26462;47.384;19.218;2023-12-07T02:17:38;13.15;;;5.60;;
40757;SDS011;26462;47.384;19.218;2023-12-07T02:20:17;12.80;;;5.72;;
40757;SDS011;26462;47.384;19.218;2023-12-07T02:22:51;15.05;;;5.47;;
40757;SDS011;26462;47.384;19.218;2023-12-07T02:25:23;11.65;;;5.15;;
40757;SDS011;26462;47.384;19.218;2023-12-07T02:27:55;15.07;;;7.00;;
40757;SDS011;26462;47.384;19.218;2023-12-07T02:30:23;13.95;;;5.80;;
40757;SDS011;26462;47.384;19.218;2023-12-07T02:32:52;13.38;;;4.70;;
40757;SDS011;26462;47.384;19.218;2023-12-07T02:35:21;15.15;;;6.15;;
40757;SDS011;26462;47.384;19.218;2023-12-07T02:37:50;13.75;;;5.93;;
40757;SDS011;26462;47.384;19.218;2023-12-07T02:40:20;13.90;;;5.38;;
40757;SDS011;26462;47.384;19.218;2023-12-07T02:42:50;13.02;;;4.78;;
40757;SDS011;26462;47.384;19.218;2023-12-07T02:45:22;11.82;;;4.97;;
40757;SDS011;26462;47.384;19.218;2023-12-07T02:47:51;10.55;;;4.70;;
40757;SDS011;26462;47.384;19.218;2023-12-07T02:50:19;11.13;;;4.40;;
40757;SDS011;26462;47.384;19.218;2023-12-07T02:52:48;13.02;;;4.57;;
40757;SDS011;26462;47.384;19.218;2023-12-07T02:55:16;10.02;;;3.88;;
40757;SDS011;26462;47.384;19.218;2023-12-07T02:57:45;12.05;;;5.22;;
40757;SDS011;26462;47.384;19.218;2023-12-07T03:00:14;9.18;;;3.50;;
40757;SDS011;26462;47.384;19.218;2023-12-07T03:02:44;8.02;;;3.53;;
40757;SDS011;26462;47.384;19.218;2023-12-07T03:05:14;10.02;;;3.53;;
40757;SDS011;26462;47.384;19.218;2023-12-07T03:07:42;9.43;;;3.80;;
40757;SDS011;26462;47.384;19.218;2023-12-07T03:10:11;7.70;;;3.13;;
40757;SDS011;26462;47.384;19.218;2023-12-07T03:12:39;7.82;;;3.22;;
40757;SDS011;26462;47.384;19.218;2023-12-07T03:15:08;8.23;;;3.10;;
40757;SDS011;26462;47.384;19.218;2023-12-07T03:17:37;7.57;;;3.33;;
40757;SDS011;26462;47.384;19.218;2023-12-07T03:20:07;7.53;;;3.03;;
40757;SDS011;26462;47.384;19.218;2023-12-07T03:22:36;6.55;;;3.38;;
40757;SDS011;26462;47.384;19.218;2023-12-07T03:25:06;7.70;;;2.90;;
40757;SDS011;26462;47.384;19.218;2023-12-07T03:27:35;6.60;;;2.90;;
40757;SDS011;26462;47.384;19.218;2023-12-07T03:30:04;7.03;;;3.30;;
40757;SDS011;26462;47.384;19.218;2023-12-07T03:32:33;10.90;;;4.38;;
40757;SDS011;26462;47.384;19.218;2023-12-07T03:35:02;9.15;;;4.15;;
40757;SDS011;26462;47.384;19.218;2023-12-07T03:37:32;7.72;;;3.58;;
40757;SDS011;26462;47.384;19.218;2023-12-07T03:40:01;6.35;;;2.35;;
40757;SDS011;26462;47.384;19.218;2023-12-07T03:42:31;6.50;;;3.05;;
40757;SDS011;26462;47.384;19.218;2023-12-07T03:45:21;8.38;;;3.42;;
40757;SDS011;26462;47.384;19.218;2023-12-07T03:47:50;9.40;;;3.80;;
40757;SDS011;26462;47.384;19.218;2023-12-07T03:50:19;12.27;;;5.10;;
40757;SDS011;26462;47.384;19.218;2023-12-07T03:52:49;9.35;;;4.57;;
40757;SDS011;26462;47.384;19.218;2023-12-07T03:55:18;11.65;;;4.85;;
40757;SDS011;26462;47.384;19.218;2023-12-07T03:57:48;8.75;;;4.20;;
40757;SDS011;26462;47.384;19.218;2023-12-07T04:00:17;7.90;;;3.40;;
40757;SDS011;26462;47.384;19.218;2023-12-07T04:02:45;8.55;;;3.55;;
40757;SDS011;26462;47.384;19.218;2023-12-07T04:05:14;8.75;;;4.22;;
40757;SDS011;26462;47.384;19.218;2023-12-07T04:07:43;9.65;;;4.13;;
40757;SDS011;26462;47.384;19.218;2023-12-07T04:10:14;9.55;;;4.25;;
40757;SDS011;26462;47.384;19.218;2023-12-07T04:12:42;9.20;;;4.32;;
40757;SDS011;26462;47.384;19.218;2023-12-07T04:15:12;8.55;;;3.75;;
40757;SDS011;26462;47.384;19.218;2023-12-07T04:17:44;8.93;;;3.78;;
40757;SDS011;26462;47.384;19.218;2023-12-07T04:20:13;6.57;;;3.10;;
40757;SDS011;26462;47.384;19.218;2023-12-07T04:22:43;8.68;;;3.67;;
40757;SDS011;26462;47.384;19.218;2023-12-07T04:25:13;10.40;;;4.35;;
40757;SDS011;26462;47.384;19.218;2023-12-07T04:27:42;9.15;;;3.63;;
40757;SDS011;26462;47.384;19.218;2023-12-07T04:30:11;9.70;;;4.25;;
40757;SDS011;26462;47.384;19.218;2023-12-07T04:32:40;10.10;;;4.57;;
40757;SDS011;26462;47.384;19.218;2023-12-07T04:35:09;8.68;;;4.15;;
40757;SDS011;26462;47.384;19.218;2023-12-07T04:37:37;10.05;;;4.45;;
40757;SDS011;26462;47.384;19.218;2023-12-07T04:40:06;9.60;;;4.22;;
40757;SDS011;26462;47.384;19.218;2023-12-07T04:42:38;9.95;;;4.45;;
40757;SDS011;26462;47.384;19.218;2023-12-07T04:45:07;12.85;;;4.47;;
40757;SDS011;26462;47.384;19.218;2023-12-07T04:47:36;11.80;;;5.10;;
40757;SDS011;26462;47.384;19.218;2023-12-07T04:50:05;12.85;;;5.60;;
40757;SDS011;26462;47.384;19.218;2023-12-07T04:52:34;10.27;;;5.38;;
40757;SDS011;26462;47.384;19.218;2023-12-07T04:55:03;13.02;;;5.50;;
40757;SDS011;26462;47.384;19.218;2023-12-07T04:57:33;13.23;;;5.13;;
40757;SDS011;26462;47.384;19.218;2023-12-07T05:00:03;11.07;;;5.40;;
40757;SDS011;26462;47.384;19.218;2023-12-07T05:02:36;11.48;;;5.05;;
40757;SDS011;26462;47.384;19.218;2023-12-07T05:05:05;10.90;;;5.00;;
40757;SDS011;26462;47.384;19.218;2023-12-07T05:07:33;13.95;;;5.97;;
40757;SDS011;26462;47.384;19.218;2023-12-07T05:10:02;12.85;;;5.53;;
40757;SDS011;26462;47.384;19.218;2023-12-07T05:12:31;13.50;;;6.60;;
40757;SDS011;26462;47.384;19.218;2023-12-07T05:15:03;15.55;;;7.43;;
40757;SDS011;26462;47.384;19.218;2023-12-07T05:17:33;16.83;;;7.85;;
40757;SDS011;26462;47.384;19.218;2023-12-07T05:20:02;15.85;;;7.53;;
40757;SDS011;26462;47.384;19.218;2023-12-07T05:22:32;17.13;;;7.78;;
40757;SDS011;26462;47.384;19.218;2023-12-07T05:25:01;19.33;;;8.35;;
40757;SDS011;26462;47.384;19.218;2023-12-07T05:27:32;18.58;;;7.68;;
40757;SDS011;26462;47.384;19.218;2023-12-07T05:30:00;22.23;;;8.98;;
40757;SDS011;26462;47.384;19.218;2023-12-07T05:32:30;23.58;;;9.48;;
40757;SDS011;26462;47.384;19.218;2023-12-07T05:34:59;24.20;;;9.00;;
40757;SDS011;26462;47.384;19.218;2023-12-07T05:37:27;21.85;;;9.57;;
40757;SDS011;26462;47.384;19.218;2023-12-07T05:39:56;18.30;;;8.00;;
40757;SDS011;26462;47.384;19.218;2023-12-07T05:42:24;23.73;;;9.80;;
40757;SDS011;26462;47.384;19.218;2023-12-07T05:44:52;18.17;;;8.73;;
40757;SDS011;26462;47.384;19.218;2023-12-07T05:47:21;20.30;;;9.23;;
40757;SDS011;26462;47.384;19.218;2023-12-07T05:49:51;18.00;;;8.20;;
40757;SDS011;26462;47.384;19.218;2023-12-07T05:52:20;16.88;;;7.97;;
40757;SDS011;26462;47.384;19.218;2023-12-07T05:54:48;19.75;;;8.60;;
40757;SDS011;26462;47.384;19.218;2023-12-07T05:57:17;21.13;;;8.65;;
40757;SDS011;26462;47.384;19.218;2023-12-07T05:59:46;19.30;;;8.43;;
40757;SDS011;26462;47.384;19.218;2023-12-07T06:02:14;20.30;;;8.68;;
40757;SDS011;26462;47.384;19.218;2023-12-07T06:04:43;25.42;;;9.02;;
40757;SDS011;26462;47.384;19.218;2023-12-07T06:07:13;21.88;;;8.90;;
40757;SDS011;26462;47.384;19.218;2023-12-07T06:09:41;16.98;;;7.90;;
40757;SDS011;26462;47.384;19.218;2023-12-07T06:12:10;15.43;;;7.72;;
40757;SDS011;26462;47.384;19.218;2023-12-07T06:14:39;17.98;;;7.00;;
40757;SDS011;26462;47.384;19.218;2023-12-07T06:17:09;18.73;;;8.18;;
40757;SDS011;26462;47.384;19.218;2023-12-07T06:19:37;20.38;;;8.48;;
40757;SDS011;26462;47.384;19.218;2023-12-07T06:22:06;22.88;;;9.68;;
40757;SDS011;26462;47.384;19.218;2023-12-07T06:24:36;21.65;;;9.15;;
40757;SDS011;26462;47.384;19.218;2023-12-07T06:27:04;21.50;;;9.18;;
40757;SDS011;26462;47.384;19.218;2023-12-07T06:29:33;16.88;;;8.00;;
40757;SDS011;26462;47.384;19.218;2023-12-07T06:32:01;19.02;;;9.07;;
40757;SDS011;26462;47.384;19.218;2023-12-07T06:34:30;15.98;;;7.93;;
40757;SDS011;26462;47.384;19.218;2023-12-07T06:36:59;18.00;;;8.50;;
40757;SDS011;26462;47.384;19.218;2023-12-07T06:39:27;17.75;;;8.18;;
40757;SDS011;26462;47.384;19.218;2023-12-07T06:41:57;19.92;;;9.30;;
40757;SDS011;26462;47.384;19.218;2023-12-07T06:44:26;18.45;;;8.55;;
40757;SDS011;26462;47.384;19.218;2023-12-07T06:46:54;15.73;;;8.20;;
40757;SDS011;26462;47.384;19.218;2023-12-07T06:49:23;21.40;;;10.52;;
40757;SDS011;26462;47.384;19.218;2023-12-07T06:52:08;31.30;;;12.45;;
40757;SDS011;26462;47.384;19.218;2023-12-07T06:54:37;28.42;;;12.02;;
40757;SDS011;26462;47.384;19.218;2023-12-07T06:57:07;24.25;;;10.50;;
40757;SDS011;26462;47.384;19.218;2023-12-07T06:59:35;25.48;;;10.05;;
40757;SDS011;26462;47.384;19.218;2023-12-07T07:02:04;26.45;;;10.57;;
40757;SDS011;26462;47.384;19.218;2023-12-07T07:04:32;25.38;;;10.40;;
40757;SDS011;26462;47.384;19.218;2023-12-07T07:07:01;28.92;;;11.43;;
40757;SDS011;26462;47.384;19.218;2023-12-07T07:09:29;25.95;;;12.32;;
40757;SDS011;26462;47.384;19.218;2023-12-07T07:11:57;34.85;;;15.48;;
40757;SDS011;26462;47.384;19.218;2023-12-07T07:14:28;25.00;;;13.68;;
40757;SDS011;26462;47.384;19.218;2023-12-07T07:16:56;21.50;;;11.57;;
40757;SDS011;26462;47.384;19.218;2023-12-07T07:19:25;21.35;;;11.65;;
40757;SDS011;26462;47.384;19.218;2023-12-07T07:21:53;18.42;;;9.07;;
40757;SDS011;26462;47.384;19.218;2023-12-07T07:24:22;14.80;;;7.45;;
40757;SDS011;26462;47.384;19.218;2023-12-07T07:26:50;20.30;;;8.38;;
40757;SDS011;26462;47.384;19.218;2023-12-07T07:29:19;22.10;;;9.30;;
40757;SDS011;26462;47.384;19.218;2023-12-07T07:31:49;18.00;;;8.50;;
40757;SDS011;26462;47.384;19.218;2023-12-07T07:34:17;21.05;;;10.15;;
40757;SDS011;26462;47.384;19.218;2023-12-07T07:36:46;18.70;;;9.27;;
40757;SDS011;26462;47.384;19.218;2023-12-07T07:39:16;17.42;;;9.00;;
40757;SDS011;26462;47.384;19.218;2023-12-07T07:41:45;19.40;;;8.82;;
40757;SDS011;26462;47.384;19.218;2023-12-07T07:44:13;29.55;;;11.38;;
40757;SDS011;26462;47.384;19.218;2023-12-07T07:46:42;22.95;;;11.20;;
40757;SDS011;26462;47.384;19.218;2023-12-07T07:49:11;25.70;;;11.77;;
40757;SDS011;26462;47.384;19.218;2023-12-07T07:51:40;38.05;;;13.18;;
40757;SDS011;26462;47.384;19.218;2023-12-07T07:54:08;47.40;;;17.13;;
40757;SDS011;26462;47.384;19.218;2023-12-07T07:56:37;80.90;;;29.00;;
40757;SDS011;26462;47.384;19.218;2023-12-07T07:59:05;80.50;;;30.38;;
40757;SDS011;26462;47.384;19.218;2023-12-07T08:01:34;55.67;;;24.58;;
40757;SDS011;26462;47.384;19.218;2023-12-07T08:04:02;39.92;;;19.27;;
40757;SDS011;26462;47.384;19.218;2023-12-07T08:06:32;34.03;;;15.63;;
40757;SDS011;26462;47.384;19.218;2023-12-07T08:09:03;28.97;;;14.30;;
40757;SDS011;26462;47.384;19.218;2023-12-07T08:11:31;24.80;;;13.18;;
40757;SDS011;26462;47.384;19.218;2023-12-07T08:14:00;25.63;;;12.73;;
40757;SDS011;26462;47.384;19.218;2023-12-07T08:16:28;24.80;;;12.18;;
40757;SDS011;26462;47.384;19.218;2023-12-07T08:18:57;20.98;;;10.73;;
40757;SDS011;26462;47.384;19.218;2023-12-07T08:21:25;22.98;;;10.48;;
40757;SDS011;26462;47.384;19.218;2023-12-07T08:23:58;67.75;;;27.77;;
40757;SDS011;26462;47.384;19.218;2023-12-07T08:26:26;103.07;;;46.85;;
40757;SDS011;26462;47.384;19.218;2023-12-07T08:28:55;42.95;;;21.10;;
40757;SDS011;26462;47.384;19.218;2023-12-07T08:31:23;67.18;;;25.95;;
40757;SDS011;26462;47.384;19.218;2023-12-07T08:33:52;62.00;;;27.02;;
40757;SDS011;26462;47.384;19.218;2023-12-07T08:36:20;41.63;;;18.30;;
40757;SDS011;26462;47.384;19.218;2023-12-07T08:38:49;32.83;;;14.95;;
40757;SDS011;26462;47.384;19.218;2023-12-07T08:41:19;29.15;;;13.68;;
40757;SDS011;26462;47.384;19.218;2023-12-07T08:43:48;28.55;;;14.50;;
40757;SDS011;26462;47.384;19.218;2023-12-07T08:46:16;27.90;;;13.88;;
40757;SDS011;26462;47.384;19.218;2023-12-07T08:48:45;22.80;;;12.05;;
40757;SDS011;26462;47.384;19.218;2023-12-07T08:51:13;36.33;;;18.88;;
40757;SDS011;26462;47.384;19.218;2023-12-07T08:53:42;28.05;;;15.30;;
40757;SDS011;26462;47.384;19.218;2023-12-07T08:56:10;30.23;;;13.10;;
40757;SDS011;26462;47.384;19.218;2023-12-07T08:58:40;25.10;;;13.05;;
40757;SDS011;26462;47.384;19.218;2023-12-07T09:01:09;32.90;;;15.70;;
40757;SDS011;26462;47.384;19.218;2023-12-07T09:03:55;34.47;;;16.65;;
40757;SDS011;26462;47.384;19.218;2023-12-07T09:06:23;33.50;;;16.20;;
40757;SDS011;26462;47.384;19.218;2023-12-07T09:08:52;37.05;;;16.98;;
40757;SDS011;26462;47.384;19.218;2023-12-07T09:11:22;34.53;;;16.75;;
40757;SDS011;26462;47.384;19.218;2023-12-07T09:13:51;36.40;;;17.95;;
40757;SDS011;26462;47.384;19.218;2023-12-07T09:16:20;43.13;;;20.95;;
40757;SDS011;26462;47.384;19.218;2023-12-07T09:18:49;44.63;;;18.50;;
40757;SDS011;26462;47.384;19.218;2023-12-07T09:21:17;39.33;;;18.52;;
40757;SDS011;26462;47.384;19.218;2023-12-07T09:23:46;41.10;;;16.30;;
40757;SDS011;26462;47.384;19.218;2023-12-07T09:26:14;31.77;;;14.55;;
40757;SDS011;26462;47.384;19.218;2023-12-07T09:28:43;38.35;;;16.30;;
40757;SDS011;26462;47.384;19.218;2023-12-07T09:31:12;76.63;;;30.98;;
40757;SDS011;26462;47.384;19.218;2023-12-07T09:33:42;44.97;;;20.42;;
40757;SDS011;26462;47.384;19.218;2023-12-07T09:36:10;39.97;;;15.93;;
40757;SDS011;26462;47.384;19.218;2023-12-07T09:38:40;63.90;;;27.83;;
40757;SDS011;26462;47.384;19.218;2023-12-07T09:41:08;48.03;;;20.95;;
40757;SDS011;26462;47.384;19.218;2023-12-07T09:43:37;48.55;;;19.50;;
40757;SDS011;26462;47.384;19.218;2023-12-07T09:46:05;57.53;;;24.13;;
40757;SDS011;26462;47.384;19.218;2023-12-07T09:48:35;66.18;;;28.50;;
40757;SDS011;26462;47.384;19.218;2023-12-07T09:51:07;47.40;;;20.17;;
40757;SDS011;26462;47.384;19.218;2023-12-07T09:53:38;60.45;;;29.65;;
40757;SDS011;26462;47.384;19.218;2023-12-07T09:56:10;32.20;;;16.08;;
40757;SDS011;26462;47.384;19.218;2023-12-07T09:58:39;46.33;;;20.55;;
40757;SDS011;26462;47.384;19.218;2023-12-07T10:01:08;34.53;;;14.55;;
40757;SDS011;26462;47.384;19.218;2023-12-07T10:03:42;36.20;;;15.27;;
40757;SDS011;26462;47.384;19.218;2023-12-07T10:06:16;39.55;;;17.67;;
40757;SDS011;26462;47.384;19.218;2023-12-07T10:08:45;63.13;;;24.05;;
40757;SDS011;26462;47.384;19.218;2023-12-07T10:11:16;77.07;;;30.35;;
40757;SDS011;26462;47.384;19.218;2023-12-07T10:14:54;86.75;;;35.75;;
40757;SDS011;26462;47.384;19.218;2023-12-07T10:26:56;45.95;;;18.58;;
40757;SDS011;26462;47.384;19.218;2023-12-07T10:29:29;52.13;;;23.15;;
40757;SDS011;26462;47.384;19.218;2023-12-07T10:32:00;53.88;;;18.73;;
40757;SDS011;26462;47.384;19.218;2023-12-07T10:34:30;50.17;;;21.90;;
40757;SDS011;26462;47.384;19.218;2023-12-07T10:37:03;47.65;;;20.90;;
40757;SDS011;26462;47.384;19.218;2023-12-07T10:43:09;39.20;;;15.45;;
40757;SDS011;26462;47.384;19.218;2023-12-07T12:33:00;49.75;;;21.42;;
40757;SDS011;26462;47.384;19.218;2023-12-07T12:35:30;58.13;;;22.65;;
40757;SDS011;26462;47.384;19.218;2023-12-07T12:38:00;46.28;;;21.05;;
40757;SDS011;26462;47.384;19.218;2023-12-07T12:40:31;48.28;;;20.27;;
40757;SDS011;26462;47.384;19.218;2023-12-07T12:43:05;50.72;;;20.15;;
40757;SDS011;26462;47.384;19.218;2023-12-07T12:49:50;55.53;;;22.40;;
40757;SDS011;26462;47.384;19.218;2023-12-07T12:52:27;53.58;;;24.33;;
40757;SDS011;26462;47.384;19.218;2023-12-07T12:55:00;51.53;;;21.45;;
40757;SDS011;26462;47.384;19.218;2023-12-07T12:57:29;52.30;;;20.77;;
40757;SDS011;26462;47.384;19.218;2023-12-07T13:00:00;46.00;;;18.95;;
40757;SDS011;26462;47.384;19.218;2023-12-07T13:02:30;86.65;;;39.78;;
40757;SDS011;26462;47.384;19.218;2023-12-07T13:05:00;69.53;;;28.40;;
40757;SDS011;26462;47.384;19.218;2023-12-07T13:07:31;66.60;;;26.50;;
40757;SDS011;26462;47.384;19.218;2023-12-07T13:10:00;57.78;;;23.13;;
40757;SDS011;26462;47.384;19.218;2023-12-07T13:12:29;58.70;;;22.95;;
40757;SDS011;26462;47.384;19.218;2023-12-07T13:15:03;51.17;;;25.23;;
40757;SDS011;26462;47.384;19.218;2023-12-07T13:17:36;45.20;;;21.48;;
40757;SDS011;26462;47.384;19.218;2023-12-07T13:20:12;42.08;;;18.27;;
40757;SDS011;26462;47.384;19.218;2023-12-07T13:22:41;43.67;;;16.75;;
40757;SDS011;26462;47.384;19.218;2023-12-07T13:25:12;40.55;;;18.17;;
40757;SDS011;26462;47.384;19.218;2023-12-07T13:27:41;41.88;;;16.33;;
40757;SDS011;26462;47.384;19.218;2023-12-07T13:30:11;45.30;;;17.98;;
40757;SDS011;26462;47.384;19.218;2023-12-07T13:32:46;39.13;;;16.70;;
40757;SDS011;26462;47.384;19.218;2023-12-07T13:47:22;50.87;;;21.70;;
40757;SDS011;26462;47.384;19.218;2023-12-07T13:49:55;54.67;;;20.25;;
40757;SDS011;26462;47.384;19.218;2023-12-07T13:52:25;46.60;;;20.98;;
40757;SDS011;26462;47.384;19.218;2023-12-07T13:54:55;44.03;;;19.70;;
40757;SDS011;26462;47.384;19.218;2023-12-07T14:13:13;58.40;;;22.10;;
40757;SDS011;26462;47.384;19.218;2023-12-07T14:33:16;54.92;;;23.98;;
40757;SDS011;26462;47.384;19.218;2023-12-07T14:35:46;56.63;;;23.73;;
40757;SDS011;26462;47.384;19.218;2023-12-07T14:38:16;52.40;;;24.02;;
40757;SDS011;26462;47.384;19.218;2023-12-07T14:40:46;57.05;;;25.27;;
40757;SDS011;26462;47.384;19.218;2023-12-07T14:43:16;57.92;;;26.05;;
40757;SDS011;26462;47.384;19.218;2023-12-07T14:45:49;57.17;;;24.80;;
40757;SDS011;26462;47.384;19.218;2023-12-07T14:48:21;60.13;;;24.95;;
40757;SDS011;26462;47.384;19.218;2023-12-07T14:51:00;62.45;;;25.33;;
40757;SDS011;26462;47.384;19.218;2023-12-07T14:53:31;62.00;;;26.85;;
40757;SDS011;26462;47.384;19.218;2023-12-07T14:59:27;62.78;;;26.80;;
40757;SDS011;26462;47.384;19.218;2023-12-07T15:02:15;53.95;;;26.20;;
40757;SDS011;26462;47.384;19.218;2023-12-07T15:05:19;67.78;;;28.55;;
40757;SDS011;26462;47.384;19.218;2023-12-07T15:08:14;64.88;;;26.90;;
40757;SDS011;26462;47.384;19.218;2023-12-07T15:10:47;60.80;;;27.27;;
40757;SDS011;26462;47.384;19.218;2023-12-07T15:13:19;59.58;;;27.00;;
40757;SDS011;26462;47.384;19.218;2023-12-07T15:15:52;62.78;;;26.75;;
40757;SDS011;26462;47.384;19.218;2023-12-07T15:18:21;61.10;;;25.45;;
40757;SDS011;26462;47.384;19.218;2023-12-07T15:20:52;56.95;;;26.63;;
40757;SDS011;26462;47.384;19.218;2023-12-07T15:23:24;62.05;;;26.55;;
40757;SDS011;26462;47.384;19.218;2023-12-07T15:25:55;79.22;;;32.42;;
40757;SDS011;26462;47.384;19.218;2023-12-07T15:28:24;68.97;;;31.30;;
40757;SDS011;26462;47.384;19.218;2023-12-07T15:30:55;76.88;;;34.05;;
40757;SDS011;26462;47.384;19.218;2023-12-07T15:33:27;83.95;;;33.50;;
40757;SDS011;26462;47.384;19.218;2023-12-07T15:35:57;78.57;;;32.85;;
40757;SDS011;26462;47.384;19.218;2023-12-07T15:38:29;151.25;;;54.42;;
40757;SDS011;26462;47.384;19.218;2023-12-07T15:41:01;187.10;;;66.60;;
40757;SDS011;26462;47.384;19.218;2023-12-07T15:43:30;133.30;;;49.60;;
40757;SDS011;26462;47.384;19.218;2023-12-07T15:45:58;115.82;;;47.80;;
40757;SDS011;26462;47.384;19.218;2023-12-07T15:48:30;122.68;;;51.05;;
40757;SDS011;26462;47.384;19.218;2023-12-07T15:51:00;117.93;;;51.95;;
40757;SDS011;26462;47.384;19.218;2023-12-07T15:53:29;98.68;;;40.83;;
40757;SDS011;26462;47.384;19.218;2023-12-07T15:55:58;108.20;;;43.83;;
40757;SDS011;26462;47.384;19.218;2023-12-07T15:58:29;94.47;;;38.15;;
40757;SDS011;26462;47.384;19.218;2023-12-07T16:00:59;101.53;;;42.55;;
40757;SDS011;26462;47.384;19.218;2023-12-07T16:03:28;102.15;;;44.22;;
40757;SDS011;26462;47.384;19.218;2023-12-07T16:05:58;109.35;;;45.85;;
40757;SDS011;26462;47.384;19.218;2023-12-07T16:08:30;91.47;;;41.65;;
40757;SDS011;26462;47.384;19.218;2023-12-07T16:11:00;116.55;;;49.47;;
40757;SDS011;26462;47.384;19.218;2023-12-07T16:13:29;132.35;;;56.25;;
40757;SDS011;26462;47.384;19.218;2023-12-07T16:15:58;109.90;;;44.15;;
40757;SDS011;26462;47.384;19.218;2023-12-07T16:18:28;112.20;;;46.50;;
40757;SDS011;26462;47.384;19.218;2023-12-07T16:20:57;99.80;;;40.50;;
40757;SDS011;26462;47.384;19.218;2023-12-07T16:23:28;110.15;;;45.33;;
40757;SDS011;26462;47.384;19.218;2023-12-07T16:25:57;114.28;;;47.33;;
40757;SDS011;26462;47.384;19.218;2023-12-07T16:28:25;99.13;;;43.30;;
40757;SDS011;26462;47.384;19.218;2023-12-07T16:30:54;98.22;;;42.65;;
40757;SDS011;26462;47.384;19.218;2023-12-07T16:33:22;98.65;;;41.60;;
40757;SDS011;26462;47.384;19.218;2023-12-07T16:35:51;96.07;;;40.20;;
40757;SDS011;26462;47.384;19.218;2023-12-07T16:38:21;118.28;;;45.28;;
40757;SDS011;26462;47.384;19.218;2023-12-07T16:40:51;239.23;;;78.30;;
40757;SDS011;26462;47.384;19.218;2023-12-07T16:43:20;291.38;;;101.57;;
40757;SDS011;26462;47.384;19.218;2023-12-07T16:45:48;149.95;;;61.60;;
40757;SDS011;26462;47.384;19.218;2023-12-07T16:48:17;102.88;;;44.67;;
40757;SDS011;26462;47.384;19.218;2023-12-07T16:50:45;78.03;;;34.55;;
40757;SDS011;26462;47.384;19.218;2023-12-07T16:53:15;87.63;;;34.90;;
40757;SDS011;26462;47.384;19.218;2023-12-07T16:55:45;77.78;;;33.60;;
40757;SDS011;26462;47.384;19.218;2023-12-07T16:58:16;81.57;;;35.20;;
40757;SDS011;26462;47.384;19.218;2023-12-07T17:00:52;106.70;;;44.38;;
40757;SDS011;26462;47.384;19.218;2023-12-07T17:03:21;97.75;;;40.70;;
40757;SDS011;26462;47.384;19.218;2023-12-07T17:05:50;80.22;;;36.60;;
40757;SDS011;26462;47.384;19.218;2023-12-07T17:08:19;80.82;;;34.20;;
40757;SDS011;26462;47.384;19.218;2023-12-07T17:10:48;80.90;;;35.63;;
40757;SDS011;26462;47.384;19.218;2023-12-07T17:13:18;81.40;;;38.97;;
40757;SDS011;26462;47.384;19.218;2023-12-07T17:15:46;80.80;;;39.78;;
40757;SDS011;26462;47.384;19.218;2023-12-07T17:18:15;85.60;;;38.95;;
40757;SDS011;26462;47.384;19.218;2023-12-07T17:20:46;70.33;;;32.20;;
40757;SDS011;26462;47.384;19.218;2023-12-07T17:23:15;61.97;;;29.02;;
40757;SDS011;26462;47.384;19.218;2023-12-07T17:25:43;85.85;;;34.25;;
40757;SDS011;26462;47.384;19.218;2023-12-07T17:28:11;144.20;;;47.60;;
40757;SDS011;26462;47.384;19.218;2023-12-07T17:30:41;146.27;;;48.67;;
40757;SDS011;26462;47.384;19.218;2023-12-07T17:33:10;116.00;;;44.47;;
40757;SDS011;26462;47.384;19.218;2023-12-07T17:35:38;125.25;;;45.03;;
40757;SDS011;26462;47.384;19.218;2023-12-07T17:38:07;111.03;;;41.80;;